createdAt,value
2022-11-09T00:03:46.176Z,98195.6
2022-11-09T00:09:22.587Z,98195.4
2022-11-09T00:14:57.902Z,98185.1
2022-11-09T00:20:33.017Z,98186
2022-11-09T00:26:08.705Z,98177.3
2022-11-09T00:31:43.539Z,98179.3
2022-11-09T00:37:19.043Z,98181.3
2022-11-09T00:42:54.700Z,98189.5
2022-11-09T00:48:55.695Z,98209.2
2022-11-09T00:54:28.172Z,98220.6
2022-11-09T01:00:03.292Z,98227.1
2022-11-09T01:05:38.572Z,98224.9
2022-11-09T01:11:14.482Z,98225.1
2022-11-09T01:16:49.517Z,98212.4
2022-11-09T01:22:24.512Z,98239.9
2022-11-09T01:27:59.479Z,98261
2022-11-09T01:33:34.154Z,98225.5
2022-11-09T01:39:09.297Z,98211.1
2022-11-09T01:44:44.758Z,98218.2
2022-11-09T01:50:20.083Z,98223.4
2022-11-09T01:55:55.100Z,98225.9
2022-11-09T02:01:30.403Z,98211.9
2022-11-09T02:07:06.587Z,98212.1
2022-11-09T02:12:42.390Z,98242
2022-11-09T02:18:17.340Z,98242.9
2022-11-09T02:23:52.373Z,98227.2
2022-11-09T02:29:27.430Z,98224.6
2022-11-09T02:35:02.986Z,98227
2022-11-09T02:40:44.876Z,98216.2
2022-11-09T02:46:41.857Z,98205.1
2022-11-09T02:52:15.443Z,98202.1
2022-11-09T02:57:50.535Z,98201
2022-11-09T03:03:25.313Z,98209.9
2022-11-09T03:09:00.180Z,98206
2022-11-09T03:14:35.236Z,98199.5
2022-11-09T03:20:10.124Z,98193.4
2022-11-09T03:25:45.317Z,98194.4
2022-11-09T03:31:21.490Z,98196.2
2022-11-09T03:36:57.495Z,98206.3
2022-11-09T03:42:32.607Z,98203.3
2022-11-09T03:48:29.311Z,98203.3
2022-11-09T03:54:03.698Z,98205.6
2022-11-09T03:59:38.591Z,98213.8
2022-11-09T04:05:13.565Z,98228.3
2022-11-09T04:10:48.865Z,98234.6
2022-11-09T04:16:24.763Z,98243.4
2022-11-09T04:21:59.598Z,98238.8
2022-11-09T04:27:35.034Z,98238.8
2022-11-09T04:33:11.406Z,98238.3
2022-11-09T04:38:46.500Z,98239.7
2022-11-09T04:44:21.369Z,98246.5
2022-11-09T04:49:57.302Z,98239.8
2022-11-09T04:55:32.624Z,98250.4
2022-11-09T05:01:07.761Z,98260.1
2022-11-09T05:06:43.821Z,98266.7
2022-11-09T05:12:20.843Z,98264.6
2022-11-09T05:17:57.005Z,98271.3
2022-11-09T05:23:32.285Z,98273.8
2022-11-09T05:29:07.336Z,98266.8
2022-11-09T05:34:42.642Z,98264.2
2022-11-09T05:40:18.436Z,98277.9
2022-11-09T05:45:53.502Z,98283.4
2022-11-09T05:51:29.364Z,98271.7
2022-11-09T05:57:04.754Z,98272.5
2022-11-09T06:02:39.824Z,98272.8
2022-11-09T06:08:16.859Z,98275.6
2022-11-09T06:13:51.970Z,98273
2022-11-09T06:19:28.360Z,98280
2022-11-09T06:25:03.764Z,98289.2
2022-11-09T06:30:39.197Z,98297
2022-11-09T06:36:15.061Z,98300.9
2022-11-09T06:41:50.127Z,98311
2022-11-09T06:47:47.012Z,98322.3
2022-11-09T06:53:21.394Z,98318.8
2022-11-09T06:59:01.353Z,98337
2022-11-09T07:04:37.198Z,98354.2
2022-11-09T07:10:12.194Z,98375.9
2022-11-09T07:15:48.694Z,98380.6
2022-11-09T07:21:24.008Z,98381.3
2022-11-09T07:26:58.749Z,98384.9
2022-11-09T07:33:10.697Z,98410
2022-11-09T07:38:46.538Z,98414.7
2022-11-09T07:44:22.256Z,98426.7
2022-11-09T07:49:57.975Z,98437.7
2022-11-09T07:55:34.202Z,98451.6
2022-11-09T08:01:10.139Z,98464.2
2022-11-09T08:06:45.555Z,98476.1
2022-11-09T08:12:21.176Z,98482.5
2022-11-09T08:17:57.083Z,98485
2022-11-09T08:23:31.951Z,98500.7
2022-11-09T08:29:07.168Z,98512.2
2022-11-09T08:34:42.891Z,98513.3
2022-11-09T08:40:18.075Z,98523.8
2022-11-09T08:45:53.899Z,98539.3
2022-11-09T08:51:29.646Z,98544
2022-11-09T08:57:06.260Z,98546.1
2022-11-09T09:02:42.297Z,98550.6
2022-11-09T09:08:17.981Z,98562.1
2022-11-09T09:13:55.019Z,98561.5
2022-11-09T09:19:30.015Z,98569.1
2022-11-09T09:25:05.281Z,98585.6
2022-11-09T09:30:40.405Z,98604.9
2022-11-09T09:36:15.584Z,98609.2
2022-11-09T09:41:50.422Z,98621.2
2022-11-09T09:47:25.508Z,98626.1
2022-11-09T09:53:25.460Z,98630.6
2022-11-09T09:59:01.438Z,98645.7
2022-11-09T10:04:37.347Z,98654.7
2022-11-09T10:10:13.809Z,98671.5
2022-11-09T10:15:48.889Z,98684.1
2022-11-09T10:21:23.788Z,98690.9
2022-11-09T10:27:00.110Z,98704.7
2022-11-09T10:32:34.965Z,98719.5
2022-11-09T10:38:11.138Z,98713.9
2022-11-09T10:43:47.596Z,98738.9
2022-11-09T10:49:22.605Z,98749.3
2022-11-09T10:54:57.894Z,98749.9
2022-11-09T11:00:33.081Z,98748.1
2022-11-09T11:06:08.778Z,98751.2
2022-11-09T11:11:44.104Z,98748.7
2022-11-09T11:17:19.179Z,98746
2022-11-09T11:22:54.902Z,98755.6
2022-11-09T11:28:30.467Z,98762
2022-11-09T11:34:05.480Z,98763.6
2022-11-09T11:39:40.455Z,98765.6
2022-11-09T11:45:42.736Z,98772.2
2022-11-09T11:51:18.219Z,98777.9
2022-11-09T11:56:53.283Z,98780.8
2022-11-09T12:02:29.145Z,98777.2
2022-11-09T12:08:05.232Z,98793.3
2022-11-09T12:13:40.062Z,98805.4
2022-11-09T12:19:35.910Z,98813
2022-11-09T12:25:11.913Z,98821.1
2022-11-09T12:30:46.801Z,98827.6
2022-11-09T12:36:22.579Z,98836.9
2022-11-09T12:41:58.373Z,98839.2
2022-11-09T12:47:33.057Z,98838.4
2022-11-09T12:53:08.951Z,98842
2022-11-09T12:58:44.001Z,98853.3
2022-11-09T13:04:19.163Z,98855.3
2022-11-09T13:09:55.386Z,98862.2
2022-11-09T13:15:30.183Z,98868.4
2022-11-09T13:21:05.745Z,98864.7
2022-11-09T13:26:41.114Z,98860.9
2022-11-09T13:32:17.333Z,98865.9
2022-11-09T13:37:52.170Z,98866.9
2022-11-09T13:43:29.570Z,98868.1
2022-11-09T13:49:05.669Z,98873.8
2022-11-09T13:54:41.208Z,98882.4
2022-11-09T14:00:16.877Z,98890.2
2022-11-09T14:05:54.062Z,98894.6
2022-11-09T14:11:30.945Z,98907.5
2022-11-09T14:17:08.198Z,98921.2
2022-11-09T14:22:44.954Z,98923.2
2022-11-09T14:28:26.503Z,98932.6
2022-11-09T14:34:04.233Z,98930.4
2022-11-09T14:39:46.485Z,98931.2
2022-11-09T14:45:22.702Z,98936.5
2022-11-09T14:50:58.556Z,98943.5
2022-11-09T14:56:34.243Z,98953.8
2022-11-09T15:02:15.790Z,98962
2022-11-09T15:07:58.494Z,98972.6
2022-11-09T15:13:50.702Z,98980
2022-11-09T15:19:43.841Z,98983.6
2022-11-09T15:25:23.107Z,98992.8
2022-11-09T15:31:00.580Z,99001
2022-11-09T15:36:46.728Z,98994.4
2022-11-09T15:42:34.169Z,98993.4
2022-11-09T15:48:42.088Z,98997.3
2022-11-09T15:54:21.315Z,98999.5
2022-11-09T15:59:56.496Z,99006.7
2022-11-09T16:05:31.736Z,99010.4
2022-11-09T16:11:06.763Z,99007.6
2022-11-09T16:16:41.742Z,99012.2
2022-11-09T16:22:16.588Z,99015.3
2022-11-09T16:27:52.834Z,99013.6
2022-11-09T16:33:28.145Z,99020.6
2022-11-09T16:39:06.370Z,99028.3
2022-11-09T16:44:41.176Z,99036.6
2022-11-09T16:50:16.240Z,99042.3
2022-11-09T16:55:51.187Z,99048.9
2022-11-09T17:01:26.450Z,99057.5
2022-11-09T17:07:02.342Z,99075.5
2022-11-09T17:12:38.506Z,99089.5
2022-11-09T17:18:14.208Z,99097.9
2022-11-09T17:23:49.223Z,99099.9
2022-11-09T17:29:24.307Z,99112.1
2022-11-09T17:35:01.320Z,99132.9
2022-11-09T17:40:36.422Z,99137.9
2022-11-09T17:46:11.269Z,99143.8
2022-11-09T17:51:45.907Z,99154.3
2022-11-09T17:57:21.941Z,99155.8
2022-11-09T18:02:57.253Z,99154.9
2022-11-09T18:08:32.326Z,99163.2
2022-11-09T18:14:07.280Z,99163.1
2022-11-09T18:19:42.840Z,99160.2
2022-11-09T18:25:17.973Z,99155.7
2022-11-09T18:30:57.193Z,99163.6
2022-11-09T18:36:32.155Z,99160
2022-11-09T18:42:07.075Z,99161.6
2022-11-09T18:48:06.704Z,99160.2
2022-11-09T18:53:39.276Z,99160.4
2022-11-09T18:59:13.942Z,99167.5
2022-11-09T19:04:48.767Z,99166.5
2022-11-09T19:10:24.757Z,99173
2022-11-09T19:16:00.470Z,99172.7
2022-11-09T19:21:36.698Z,99172.7
2022-11-09T19:27:11.832Z,99177.4
2022-11-09T19:32:46.602Z,99177.3
2022-11-09T19:38:22.983Z,99180.6
2022-11-09T19:43:59.461Z,99181.1
2022-11-09T19:49:34.172Z,99184.5
2022-11-09T19:55:09.017Z,99191
2022-11-09T20:00:45.380Z,99193.4
2022-11-09T20:06:21.185Z,99197.1
2022-11-09T20:11:56.656Z,99202.8
2022-11-09T20:17:33.303Z,99207.4
2022-11-09T20:23:08.178Z,99207.6
2022-11-09T20:28:42.963Z,99212.2
2022-11-09T20:34:18.293Z,99216.6
2022-11-09T20:39:54.508Z,99219
2022-11-09T20:45:30.683Z,99219.6
2022-11-09T20:51:05.657Z,99221.1
2022-11-09T20:56:40.894Z,99222.2
2022-11-09T21:02:17.530Z,99223.5
2022-11-09T21:07:52.837Z,99229.3
2022-11-09T21:13:28.979Z,99234.5
2022-11-09T21:19:05.729Z,99239.6
2022-11-09T21:24:40.817Z,99247.7
2022-11-09T21:30:16.267Z,99246.2
2022-11-09T21:35:52.225Z,99244.1
2022-11-09T21:41:31.660Z,99247
2022-11-09T21:47:33.428Z,99250.4
2022-11-09T21:53:06.667Z,99253.5
2022-11-09T21:58:42.460Z,99254
2022-11-09T22:04:17.556Z,99250.2
2022-11-09T22:10:12.050Z,99249.8
2022-11-09T22:15:47.064Z,99255.2
2022-11-09T22:21:21.798Z,99256.9
2022-11-09T22:26:56.877Z,99259.3
2022-11-09T22:32:32.144Z,99257.8
2022-11-09T22:38:07.119Z,99260
2022-11-09T22:43:42.006Z,99264.1
2022-11-09T22:49:38.843Z,99263.9
2022-11-09T22:55:11.469Z,99260.4
2022-11-09T23:00:46.465Z,99262.7
2022-11-09T23:06:21.555Z,99267.8
2022-11-09T23:11:56.648Z,99272.2
2022-11-09T23:17:31.435Z,99273.2
2022-11-09T23:23:07.347Z,99274.1
2022-11-09T23:28:42.071Z,99279.3
2022-11-09T23:34:25.716Z,99282.2
2022-11-09T23:40:00.498Z,99285
2022-11-09T23:45:36.190Z,99283.7
2022-11-09T23:51:11.197Z,99280
2022-11-09T23:56:46.173Z,99285
